Time;durP1;ratioP1;P1;durP2;ratioP2;P2;SDS_P1;SDS_P2;PMS_P1;PMS_P2;Temp;Humidity;BMP_temperature;BMP_pressure;BME280_temperature;BME280_humidity;BME280_pressure;Samples;Min_cycle;Max_cycle;Signal;HPM_P1;HPM_P2
2022/11/29 00:00:51;;;;;;;1.20;1.10;;;;;;;2.61;84.79;96703.88;5135389;27;20134;-60
2022/11/29 00:03:18;;;;;;;0.95;0.90;;;;;;;2.50;84.82;96697.03;5135344;27;20133;-63
2022/11/29 00:05:47;;;;;;;0.90;0.90;;;;;;;2.49;85.01;96703.06;5135278;27;20669;-60
2022/11/29 00:08:14;;;;;;;1.15;1.05;;;;;;;2.51;85.11;96706.50;5135308;27;20039;-63
2022/11/29 00:10:41;;;;;;;0.77;0.77;;;;;;;2.52;85.23;96694.44;5135188;27;20526;-62
2022/11/29 00:13:09;;;;;;;1.40;0.88;;;;;;;2.55;85.23;96697.03;5135130;27;20539;-62
2022/11/29 00:15:36;;;;;;;1.13;1.02;;;;;;;2.53;84.85;96699.59;5135100;27;20043;-62
2022/11/29 00:18:04;;;;;;;1.20;0.80;;;;;;;2.50;84.70;96688.44;5134868;27;20133;-62
2022/11/29 00:20:31;;;;;;;1.05;0.98;;;;;;;2.44;84.57;96698.78;5135067;27;20047;-61
2022/11/29 00:23:00;;;;;;;0.70;0.70;;;;;;;2.40;84.72;96696.22;5134908;27;20506;-61
2022/11/29 00:25:28;;;;;;;0.80;0.80;;;;;;;2.42;84.75;96690.16;5134982;27;20039;-61
2022/11/29 00:27:55;;;;;;;0.90;0.90;;;;;;;2.38;85.71;96689.34;5134883;27;20043;-62
2022/11/29 00:30:22;;;;;;;1.05;0.98;;;;;;;2.36;85.72;96680.72;5134914;27;20126;-62
2022/11/29 00:32:49;;;;;;;0.93;0.90;;;;;;;2.36;85.95;96672.97;5134773;27;20039;-62
2022/11/29 00:35:16;;;;;;;1.05;0.98;;;;;;;2.35;85.83;96674.69;5134749;27;20043;-62
2022/11/29 00:37:44;;;;;;;0.80;0.80;;;;;;;2.33;86.06;96675.56;5134731;27;20100;-62
2022/11/29 00:40:13;;;;;;;0.80;0.80;;;;;;;2.27;85.84;96669.56;5134836;27;20096;-62
2022/11/29 00:42:40;;;;;;;1.20;0.68;;;;;;;2.28;86.17;96670.41;5134505;27;20139;-62
2022/11/29 00:45:08;;;;;;;1.05;0.80;;;;;;;2.24;86.11;96664.41;5134692;27;20454;-62
2022/11/29 00:47:35;;;;;;;1.20;0.80;;;;;;;2.34;86.65;96664.38;5134542;27;20042;-62
2022/11/29 00:50:02;;;;;;;4.32;0.90;;;;;;;2.36;86.60;96657.50;5134504;27;20043;-62
2022/11/29 00:52:29;;;;;;;0.75;0.75;;;;;;;2.39;86.39;96657.47;5134515;27;20055;-61
2022/11/29 00:54:56;;;;;;;1.95;1.08;;;;;;;2.36;86.43;96657.50;5134482;27;20075;-62
2022/11/29 00:57:25;;;;;;;0.85;0.80;;;;;;;2.34;86.28;96660.06;5134400;27;20065;-62
2022/11/29 00:59:52;;;;;;;1.10;1.00;;;;;;;2.36;86.17;96657.50;5133881;27;20046;-62
2022/11/29 01:02:20;;;;;;;1.92;1.00;;;;;;;2.36;86.74;96660.06;5134186;27;20043;-62
2022/11/29 01:04:47;;;;;;;1.75;1.10;;;;;;;2.42;86.58;96652.31;5134281;27;20545;-62
2022/11/29 01:07:15;;;;;;;2.25;1.20;;;;;;;2.49;86.42;96658.28;5134208;27;20047;-62
2022/11/29 01:09:42;;;;;;;1.02;0.93;;;;;;;2.54;86.23;96651.41;5134272;27;20050;-62
2022/11/29 01:12:10;;;;;;;1.77;0.98;;;;;;;2.56;86.13;96652.22;5134421;27;20496;-62
2022/11/29 01:14:39;;;;;;;0.85;0.85;;;;;;;2.53;85.88;96655.69;5134195;27;20488;-62
2022/11/29 01:17:06;;;;;;;0.50;0.50;;;;;;;2.52;86.36;96660.88;5134217;27;20043;-62
2022/11/29 01:19:33;;;;;;;0.70;0.70;;;;;;;2.52;86.36;96661.75;5133917;27;20073;-62
2022/11/29 01:22:01;;;;;;;1.10;1.00;;;;;;;2.51;86.19;96661.75;5134068;27;20472;-62
2022/11/29 01:24:28;;;;;;;0.82;0.73;;;;;;;2.52;85.67;96663.44;5133978;27;20054;-62
2022/11/29 01:26:55;;;;;;;0.77;0.77;;;;;;;2.50;86.01;96663.47;5134034;27;20051;-62
2022/11/29 01:29:23;;;;;;;0.82;0.82;;;;;;;2.47;86.34;96658.31;5133913;27;20083;-62
2022/11/29 01:31:53;;;;;;;1.10;1.00;;;;;;;2.52;86.54;96661.75;5134018;27;20450;-62
2022/11/29 01:34:20;;;;;;;2.92;0.80;;;;;;;2.56;86.24;96664.31;5134000;27;20076;-62
2022/11/29 01:36:47;;;;;;;0.65;0.65;;;;;;;2.57;86.17;96668.59;5134040;27;20039;-62
2022/11/29 01:39:14;;;;;;;2.60;0.80;;;;;;;2.61;86.13;96663.41;5134046;27;20074;-62
2022/11/29 01:41:41;;;;;;;0.65;0.65;;;;;;;2.59;86.28;96669.47;5134102;27;20130;-62
2022/11/29 01:44:42;;;;;;;0.55;0.55;;;;;;;2.64;86.36;96665.13;5133764;27;20139;-60
2022/11/29 01:47:12;;;;;;;1.00;0.90;;;;;;;2.64;86.06;96663.41;5133867;27;20557;-62
2022/11/29 01:49:42;;;;;;;0.70;0.70;;;;;;;2.65;86.14;96659.13;5133878;27;20476;-62
2022/11/29 01:52:15;;;;;;;1.13;1.02;;;;;;;2.63;86.73;96658.25;5133815;27;20179;-62
2022/11/29 01:54:47;;;;;;;1.02;0.90;;;;;;;2.64;86.47;96659.97;5133885;27;20039;-61
2022/11/29 01:57:14;;;;;;;0.70;0.70;;;;;;;2.65;85.82;96654.78;5133810;27;20045;-60
2022/11/29 01:59:46;;;;;;;0.80;0.80;;;;;;;2.71;86.19;96658.22;5134119;27;20057;-62
2022/11/29 02:02:17;;;;;;;0.70;0.70;;;;;;;2.68;85.79;96653.06;5133748;27;20044;-60
2022/11/29 02:04:49;;;;;;;1.45;0.80;;;;;;;2.60;85.89;96653.97;5133706;27;20557;-62
2022/11/29 02:07:17;;;;;;;0.80;0.80;;;;;;;2.48;86.17;96654.00;5133701;27;20472;-63
2022/11/29 02:09:44;;;;;;;1.25;0.93;;;;;;;2.46;86.66;96648.84;5133705;27;20047;-62
2022/11/29 02:12:22;;;;;;;0.70;0.70;;;;;;;2.47;86.44;96647.97;5137113;27;20047;-62
2022/11/29 02:15:09;;;;;;;1.20;1.05;;;;;;;2.40;86.27;96643.69;5137578;27;20047;-62
2022/11/29 02:17:50;;;;;;;11.68;3.80;;;;;;;2.36;87.16;96642.00;5137224;27;20126;-62
2022/11/29 02:20:42;;;;;;;2.10;1.10;;;;;;;2.34;87.16;96631.69;5137381;27;20220;-62
2022/11/29 02:23:28;;;;;;;1.38;1.10;;;;;;;2.30;87.55;96636.84;5137220;27;20090;-61
2022/11/29 02:26:10;;;;;;;0.93;0.80;;;;;;;2.27;87.30;96641.19;5137409;27;20142;-62
2022/11/29 02:29:00;;;;;;;0.68;0.68;;;;;;;2.28;87.44;96647.19;5137193;27;20096;-62
2022/11/29 02:31:58;;;;;;;0.60;0.60;;;;;;;2.27;87.68;96643.75;5137272;27;20141;-62
2022/11/29 02:34:53;;;;;;;0.70;0.70;;;;;;;2.31;87.49;96643.72;5137129;27;20120;-62
2022/11/29 02:37:47;;;;;;;3.28;0.80;;;;;;;2.36;87.64;96647.16;5137108;27;20043;-62
2022/11/29 02:40:28;;;;;;;0.70;0.70;;;;;;;2.44;87.31;96652.31;5136987;27;20062;-62
2022/11/29 02:43:24;;;;;;;4.00;0.70;;;;;;;2.52;86.77;96648.81;5136881;27;20043;-62
2022/11/29 02:46:05;;;;;;;0.65;0.65;;;;;;;2.52;86.84;96642.78;5136974;27;20130;-62
2022/11/29 02:48:53;;;;;;;0.77;0.75;;;;;;;2.64;86.45;96647.03;5136859;27;20096;-62
2022/11/29 02:51:29;;;;;;;0.55;0.50;;;;;;;2.68;86.64;96646.16;5136802;27;20471;-62
2022/11/29 02:54:03;;;;;;;0.70;0.70;;;;;;;2.73;86.23;96646.13;5136770;27;20047;-62
2022/11/29 02:56:38;;;;;;;0.80;0.80;;;;;;;2.70;86.01;96651.31;5136774;27;20043;-62
2022/11/29 02:59:11;;;;;;;0.93;0.82;;;;;;;2.73;86.06;96649.59;5136661;27;20043;-62
2022/11/29 03:01:47;;;;;;;0.65;0.65;;;;;;;2.74;85.79;96656.47;5136629;27;20051;-62
2022/11/29 03:04:23;;;;;;;0.60;0.60;;;;;;;2.77;85.54;96659.03;5136557;27;20051;-62
2022/11/29 03:07:02;;;;;;;0.95;0.75;;;;;;;2.76;85.35;96661.63;5136626;27;20488;-62
2022/11/29 03:09:39;;;;;;;0.70;0.70;;;;;;;2.72;85.51;96663.38;5136557;27;20053;-62
2022/11/29 03:12:18;;;;;;;0.73;0.73;;;;;;;2.75;85.46;96647.00;5136395;27;20412;-61
2022/11/29 03:14:56;;;;;;;0.73;0.60;;;;;;;2.71;85.64;96653.06;5136397;27;20051;-62
2022/11/29 03:17:32;;;;;;;0.82;0.80;;;;;;;2.75;85.75;96641.84;5136088;27;20126;-62
2022/11/29 03:20:23;;;;;;;0.70;0.70;;;;;;;2.77;85.75;96650.44;5136207;27;20043;-62
2022/11/29 03:23:09;;;;;;;0.70;0.68;;;;;;;2.63;85.76;96650.50;5135868;27;20126;-62
2022/11/29 03:25:41;;;;;;;0.70;0.70;;;;;;;2.65;85.93;96654.78;5136164;27;20047;-62
2022/11/29 03:28:15;;;;;;;0.60;0.60;;;;;;;2.70;85.85;96659.06;5136064;27;20047;-62
2022/11/29 03:30:49;;;;;;;0.68;0.65;;;;;;;2.69;85.90;96657.34;5135949;27;20464;-62
2022/11/29 03:33:25;;;;;;;0.95;0.85;;;;;;;2.69;86.37;96662.53;5135944;27;20047;-62
2022/11/29 03:36:00;;;;;;;0.80;0.80;;;;;;;2.66;86.46;96668.56;5136094;27;20039;-62
2022/11/29 03:38:35;;;;;;;0.80;0.80;;;;;;;2.67;86.46;96661.69;5135950;27;20122;-62
2022/11/29 03:41:13;;;;;;;0.70;0.70;;;;;;;2.68;86.45;96660.81;5135794;27;20043;-62
2022/11/29 03:43:45;;;;;;;0.82;0.73;;;;;;;2.61;86.42;96663.41;5135693;27;20047;-62
2022/11/29 03:46:19;;;;;;;0.75;0.70;;;;;;;2.61;86.55;96659.97;5135766;27;20039;-62
2022/11/29 03:48:49;;;;;;;0.85;0.80;;;;;;;2.55;86.71;96667.75;5135635;27;20074;-62
2022/11/29 03:51:21;;;;;;;0.90;0.90;;;;;;;2.49;86.99;96664.34;5135638;27;20051;-62
2022/11/29 03:53:55;;;;;;;0.80;0.80;;;;;;;2.46;87.43;96666.06;5135611;27;20515;-62
2022/11/29 03:56:27;;;;;;;0.90;0.77;;;;;;;2.38;87.37;96672.09;5135616;27;20107;-62
2022/11/29 03:59:03;;;;;;;1.17;0.98;;;;;;;2.36;87.55;96675.56;5135567;27;20122;-62
2022/11/29 04:02:33;;;;;;;2.15;0.75;;;;;;;2.35;87.80;96679.03;5135361;27;20101;-61
2022/11/29 04:05:28;;;;;;;0.73;0.50;;;;;;;2.36;87.73;96681.59;5012358;28;20060;-62
2022/11/29 04:08:18;;;;;;;0.68;0.68;;;;;;;2.42;87.95;96682.44;5069557;28;20083;-62
2022/11/29 04:11:05;;;;;;;0.60;0.60;;;;;;;2.50;87.84;96678.94;5134949;27;20079;-62
2022/11/29 04:14:04;;;;;;;3.00;0.70;;;;;;;2.60;87.65;96686.66;5135162;27;20043;-62
2022/11/29 04:16:58;;;;;;;1.65;0.65;;;;;;;2.65;87.11;96688.38;5134947;27;20134;-62
2022/11/29 04:19:51;;;;;;;0.60;0.60;;;;;;;2.62;87.18;96687.53;5134918;27;20134;-62
2022/11/29 04:22:39;;;;;;;0.55;0.55;;;;;;;2.69;87.10;96693.53;5134986;27;20043;-62
2022/11/29 04:25:40;;;;;;;1.15;0.82;;;;;;;2.72;87.27;96698.69;5134998;27;20082;-62
2022/11/29 04:28:34;;;;;;;0.50;0.50;;;;;;;2.74;86.99;96697.81;5134959;27;20043;-62
2022/11/29 04:31:13;;;;;;;0.50;0.50;;;;;;;2.87;86.83;96700.34;5134945;27;20043;-62
2022/11/29 04:34:31;;;;;;;0.70;0.70;;;;;;;2.90;86.77;96700.31;5134185;27;20078;-62
2022/11/29 04:37:17;;;;;;;0.50;0.50;;;;;;;2.95;86.47;96700.31;5093753;27;20044;-62
2022/11/29 04:40:09;;;;;;;1.70;0.68;;;;;;;2.96;86.71;96697.72;5134810;27;20046;-62
2022/11/29 04:42:57;;;;;;;0.50;0.50;;;;;;;3.01;86.35;96687.34;5134738;27;20047;-62
2022/11/29 04:45:59;;;;;;;0.60;0.60;;;;;;;3.00;86.03;96691.66;5134511;27;20082;-62
2022/11/29 04:48:55;;;;;;;0.50;0.50;;;;;;;2.93;85.30;96695.16;5134511;27;20043;-62
2022/11/29 04:51:43;;;;;;;0.60;0.60;;;;;;;2.79;85.95;96695.19;5133401;27;20473;-62
2022/11/29 04:54:20;;;;;;;0.60;0.60;;;;;;;2.80;86.19;96683.16;5134473;27;20088;-62
2022/11/29 04:56:54;;;;;;;0.70;0.70;;;;;;;2.81;86.27;96692.63;5134402;27;20412;-62
2022/11/29 04:59:28;;;;;;;4.25;0.88;;;;;;;2.82;86.23;96694.31;5134425;27;20069;-62
2022/11/29 05:02:10;;;;;;;0.77;0.77;;;;;;;2.84;85.72;96698.63;5134343;27;20130;-62
2022/11/29 05:04:46;;;;;;;2.30;0.50;;;;;;;2.85;86.23;96689.13;5134348;27;20082;-62
2022/11/29 05:07:25;;;;;;;0.60;0.60;;;;;;;2.90;86.53;96697.75;5134349;27;20078;-61
2022/11/29 05:10:19;;;;;;;0.52;0.52;;;;;;;2.90;86.33;96700.31;5134222;27;20047;-62
2022/11/29 05:12:52;;;;;;;0.68;0.68;;;;;;;2.91;86.45;96707.19;5134167;27;20043;-60
2022/11/29 05:15:53;;;;;;;0.50;0.50;;;;;;;2.98;86.49;96698.56;5134147;27;20508;-63
2022/11/29 05:18:45;;;;;;;0.60;0.60;;;;;;;3.01;86.31;96700.28;5100057;27;20523;-62
2022/11/29 05:21:21;;;;;;;0.57;0.57;;;;;;;3.06;85.94;96702.81;5134193;27;20400;-62
2022/11/29 05:23:59;;;;;;;0.50;0.50;;;;;;;3.06;85.84;96707.97;5134050;27;20126;-62
2022/11/29 05:26:31;;;;;;;0.60;0.50;;;;;;;3.02;85.84;96705.44;5134004;27;20131;-63
2022/11/29 05:29:05;;;;;;;0.60;0.60;;;;;;;3.02;86.05;96709.75;5134110;27;20050;-61
2022/11/29 05:31:50;;;;;;;1.05;0.50;;;;;;;3.03;85.76;96714.91;5134158;27;20079;-61
2022/11/29 05:34:45;;;;;;;0.50;0.50;;;;;;;3.10;85.67;96714.88;5133945;27;20039;-62
2022/11/29 05:37:26;;;;;;;0.50;0.50;;;;;;;3.13;86.12;96713.13;5133908;27;20130;-61
2022/11/29 05:40:15;;;;;;;0.80;0.70;;;;;;;3.18;85.91;96714.81;5134002;27;20043;-61
2022/11/29 05:42:56;;;;;;;0.55;0.55;;;;;;;3.21;85.84;96720.84;5133834;27;20557;-62
2022/11/29 05:45:26;;;;;;;2.42;0.75;;;;;;;3.24;85.68;96715.66;5136180;27;20065;-61
2022/11/29 05:48:00;;;;;;;0.70;0.70;;;;;;;3.25;85.36;96722.53;5138028;27;20039;-62
2022/11/29 05:50:33;;;;;;;0.60;0.60;;;;;;;3.28;85.48;96719.06;5138068;27;20071;-62
2022/11/29 05:53:11;;;;;;;0.70;0.70;;;;;;;3.30;85.13;96722.50;5137924;27;20082;-62
2022/11/29 05:55:48;;;;;;;0.70;0.60;;;;;;;3.32;85.54;96723.38;5137874;27;20043;-62
2022/11/29 05:58:24;;;;;;;0.60;0.60;;;;;;;3.31;85.58;96713.88;5137919;27;20051;-62
2022/11/29 06:00:59;;;;;;;0.50;0.50;;;;;;;3.22;84.13;96719.13;5137873;27;20412;-62
2022/11/29 06:03:36;;;;;;;1.33;0.60;;;;;;;3.09;84.93;96708.84;5137521;27;20462;-62
2022/11/29 06:06:13;;;;;;;0.60;0.60;;;;;;;3.09;85.36;96710.56;5137732;27;20147;-62
2022/11/29 06:08:48;;;;;;;0.98;0.80;;;;;;;3.08;85.80;96714.03;5137740;27;20047;-62
2022/11/29 06:11:20;;;;;;;0.50;0.50;;;;;;;3.09;85.79;96710.56;5137669;27;20065;-62
2022/11/29 06:14:04;;;;;;;0.60;0.60;;;;;;;3.08;85.69;96714.03;5137607;27;20044;-62
2022/11/29 06:16:56;;;;;;;0.60;0.60;;;;;;;3.10;85.83;96717.47;5137470;27;20047;-62
2022/11/29 06:19:38;;;;;;;1.38;1.10;;;;;;;3.17;85.85;96711.38;5137195;27;20053;-62
2022/11/29 06:22:23;;;;;;;0.80;0.80;;;;;;;3.18;86.36;96715.69;5137453;27;20134;-62
2022/11/29 06:25:03;;;;;;;0.90;0.90;;;;;;;3.18;86.68;96723.44;5137249;27;20139;-62
2022/11/29 06:27:48;;;;;;;0.80;0.80;;;;;;;3.21;87.26;96720.84;5137275;27;20043;-63
2022/11/29 06:30:19;;;;;;;0.73;0.73;;;;;;;3.22;87.26;96717.38;5137236;27;20118;-62
2022/11/29 06:32:55;;;;;;;0.90;0.90;;;;;;;3.29;87.30;96719.06;5137139;27;20046;-63
2022/11/29 06:35:38;;;;;;;0.88;0.88;;;;;;;3.32;86.98;96713.03;5137226;27;20047;-63
2022/11/29 06:38:17;;;;;;;1.10;1.00;;;;;;;3.38;86.73;96714.72;5137141;27;20100;-63
2022/11/29 06:40:45;;;;;;;1.20;1.10;;;;;;;3.36;87.03;96719.03;5137099;27;20045;-62
2022/11/29 06:43:13;;;;;;;1.10;1.00;;;;;;;3.46;86.57;96719.84;5137048;27;20046;-63
2022/11/29 06:45:46;;;;;;;1.58;1.13;;;;;;;3.49;86.40;96725.00;5136965;27;20051;-62
2022/11/29 06:48:22;;;;;;;1.25;1.05;;;;;;;3.54;86.33;96720.63;5136961;27;20051;-63
2022/11/29 06:50:59;;;;;;;0.77;0.77;;;;;;;3.58;85.96;96724.91;5136803;27;20737;-63
2022/11/29 06:53:42;;;;;;;2.53;0.60;;;;;;;3.61;85.43;96722.28;5136848;27;20587;-63
2022/11/29 06:56:19;;;;;;;3.42;2.15;;;;;;;3.64;85.57;96727.44;5136010;27;20039;-62
2022/11/29 06:58:58;;;;;;;3.40;2.20;;;;;;;3.68;85.64;96723.13;5136665;27;20051;-62
2022/11/29 07:01:36;;;;;;;3.63;2.22;;;;;;;3.74;85.39;96722.22;5136706;27;20439;-62
2022/11/29 07:04:29;;;;;;;4.65;2.55;;;;;;;3.75;85.47;96716.16;5136449;27;20043;-62
2022/11/29 07:06:56;;;;;;;2.53;2.22;;;;;;;3.81;85.65;96720.41;5136494;27;20123;-62
2022/11/29 07:09:28;;;;;;;5.90;2.00;;;;;;;3.86;85.79;96719.53;5136483;27;20050;-62
2022/11/29 07:11:56;;;;;;;1.90;1.63;;;;;;;3.87;85.96;96717.78;5136473;27;20043;-62
2022/11/29 07:14:24;;;;;;;1.83;1.55;;;;;;;3.89;85.83;96721.25;5136353;27;20451;-63
2022/11/29 07:17:00;;;;;;;1.25;1.15;;;;;;;3.89;85.65;96716.06;5136431;27;20385;-63
2022/11/29 07:19:37;;;;;;;1.30;1.20;;;;;;;3.85;84.88;96714.38;5136142;27;20047;-62
2022/11/29 07:22:16;;;;;;;3.28;1.30;;;;;;;3.88;84.67;96714.31;5136257;27;20043;-63
2022/11/29 07:25:04;;;;;;;1.70;1.60;;;;;;;3.77;84.08;96717.84;5136205;27;20079;-62
2022/11/29 07:27:41;;;;;;;2.33;1.58;;;;;;;3.72;84.02;96723.94;5136186;27;20043;-62
2022/11/29 07:30:12;;;;;;;7.65;4.45;;;;;;;3.78;84.55;96724.78;5136070;27;20146;-62
2022/11/29 07:32:53;;;;;;;11.80;7.47;;;;;;;3.85;85.03;96725.56;5136070;27;20156;-62
2022/11/29 07:35:29;;;;;;;17.33;9.27;;;;;;;3.86;85.57;96714.38;5135928;27;20476;-62
2022/11/29 07:38:06;;;;;;;7.75;4.28;;;;;;;3.93;85.46;96728.09;5135929;27;20069;-62
2022/11/29 07:40:43;;;;;;;4.82;3.40;;;;;;;3.99;85.94;96733.22;5135908;27;20039;-62
2022/11/29 07:43:23;;;;;;;3.38;2.80;;;;;;;4.03;86.22;96736.63;5135819;27;20047;-62
2022/11/29 07:45:51;;;;;;;4.57;2.95;;;;;;;4.09;86.19;96736.59;5135623;27;20137;-63
2022/11/29 07:48:19;;;;;;;4.10;2.75;;;;;;;4.10;86.35;96735.72;5135865;27;20065;-62
2022/11/29 07:50:47;;;;;;;3.40;2.33;;;;;;;4.19;86.23;96739.09;5135874;27;20128;-62
2022/11/29 07:53:17;;;;;;;3.15;2.40;;;;;;;4.21;85.20;96737.34;5135633;27;20104;-62
2022/11/29 07:55:45;;;;;;;9.30;5.88;;;;;;;4.26;84.77;96740.75;5135549;27;20549;-62
2022/11/29 07:58:13;;;;;;;11.40;6.80;;;;;;;4.28;84.63;96737.25;5135587;27;20135;-62
2022/11/29 08:00:40;;;;;;;19.70;11.48;;;;;;;4.20;84.70;96741.66;5135522;27;20077;-62
2022/11/29 08:03:08;;;;;;;13.85;8.57;;;;;;;4.29;84.56;96739.00;5135373;27;20579;-62
2022/11/29 08:05:35;;;;;;;3.10;2.20;;;;;;;4.29;83.75;96741.59;5135327;27;20138;-62
2022/11/29 08:08:03;;;;;;;1.35;1.25;;;;;;;4.17;83.33;96733.94;5134467;27;20485;-62
2022/11/29 08:10:30;;;;;;;1.27;1.17;;;;;;;4.11;83.82;96734.84;5135311;27;20093;-62
2022/11/29 08:12:58;;;;;;;1.52;0.95;;;;;;;4.19;84.80;96744.28;5135183;27;20083;-62
2022/11/29 08:15:26;;;;;;;1.42;0.70;;;;;;;4.21;84.41;96738.19;5135294;27;20434;-62
2022/11/29 08:17:53;;;;;;;0.98;0.73;;;;;;;4.21;84.81;96743.38;5134832;27;20399;-62
2022/11/29 08:20:20;;;;;;;1.08;0.98;;;;;;;4.26;84.51;96741.63;5135163;27;20043;-62
2022/11/29 08:22:55;;;;;;;2.28;0.85;;;;;;;4.31;84.46;96739.00;5135004;27;20070;-62
2022/11/29 08:25:23;;;;;;;1.10;0.90;;;;;;;4.39;84.17;96741.47;5135013;27;20055;-62
2022/11/29 08:27:51;;;;;;;1.13;0.98;;;;;;;4.41;83.92;96748.38;5134906;27;20043;-62
2022/11/29 08:30:22;;;;;;;1.23;0.98;;;;;;;4.49;83.70;96743.09;5134969;27;20118;-62
2022/11/29 08:32:49;;;;;;;0.77;0.77;;;;;;;4.57;83.58;96748.19;5134861;27;20050;-62
2022/11/29 08:35:17;;;;;;;1.20;0.98;;;;;;;4.66;84.13;96745.53;5134940;27;20096;-62
2022/11/29 08:37:44;;;;;;;0.95;0.95;;;;;;;4.68;83.47;96746.38;5134723;27;20051;-62
2022/11/29 08:40:12;;;;;;;1.08;0.98;;;;;;;4.73;82.15;96742.88;5134710;27;20073;-62
2022/11/29 08:42:39;;;;;;;1.92;0.90;;;;;;;4.74;82.21;96735.06;5134663;27;20079;-62
2022/11/29 08:45:08;;;;;;;1.00;0.80;;;;;;;4.76;82.95;96743.66;5134600;27;20146;-62
2022/11/29 08:47:37;;;;;;;1.55;1.42;;;;;;;4.82;83.45;96739.31;5134656;27;20118;-62
2022/11/29 08:50:07;;;;;;;1.98;1.55;;;;;;;4.83;83.47;96725.47;5134488;27;20065;-62
2022/11/29 08:55:31;;;;;;;0.75;0.63;;;;;;;4.74;82.01;96734.19;5097511;27;20058;-62
2022/11/29 08:58:03;;;;;;;0.60;0.60;;;;;;;4.65;82.33;96730.84;5134516;27;20112;-62
2022/11/29 09:00:30;;;;;;;0.90;0.65;;;;;;;4.58;82.97;96731.81;5134312;27;20054;-62
2022/11/29 09:03:58;;;;;;;0.70;0.70;;;;;;;4.61;84.35;96713.59;5134350;27;20446;-62
2022/11/29 09:05:46;;;;;;;0.80;0.80;;;;;;;4.62;85.08;96720.53;5134347;27;20046;-62
2022/11/29 09:08:14;;;;;;;0.55;0.55;;;;;;;4.69;85.30;96713.53;5134068;27;20072;-62
2022/11/29 09:10:42;;;;;;;0.70;0.70;;;;;;;4.60;83.92;96711.06;5134284;27;20541;-62
2022/11/29 09:13:11;;;;;;;0.65;0.65;;;;;;;4.67;84.66;96707.50;5134193;27;20122;-62
2022/11/29 09:15:38;;;;;;;0.80;0.80;;;;;;;4.76;85.37;96706.53;5134248;27;20043;-62
2022/11/29 09:18:07;;;;;;;0.70;0.70;;;;;;;4.81;85.35;96707.31;5133915;27;20058;-62
2022/11/29 09:20:35;;;;;;;0.80;0.80;;;;;;;4.80;85.59;96706.50;5133881;27;20076;-62
2022/11/29 09:23:03;;;;;;;2.95;0.90;;;;;;;4.87;85.65;96699.47;5134152;27;20158;-62
2022/11/29 09:25:31;;;;;;;0.80;0.80;;;;;;;4.82;84.21;96698.69;5134011;27;20511;-61
2022/11/29 09:28:01;;;;;;;0.70;0.70;;;;;;;4.91;84.38;96698.56;5134180;27;20055;-62
2022/11/29 09:30:30;;;;;;;1.05;0.60;;;;;;;4.89;83.76;96689.97;5134187;27;20043;-61
2022/11/29 09:32:59;;;;;;;0.80;0.75;;;;;;;4.91;83.87;96695.97;5134072;27;20050;-61
2022/11/29 09:35:27;;;;;;;0.70;0.70;;;;;;;4.96;84.58;96687.28;5134112;27;20043;-62
2022/11/29 09:37:54;;;;;;;0.70;0.70;;;;;;;5.04;84.99;96678.53;5134037;27;20077;-61
2022/11/29 09:40:34;;;;;;;3.55;0.77;;;;;;;5.07;85.80;96669.84;5133909;27;20047;-62
2022/11/29 09:43:06;;;;;;;1.00;0.75;;;;;;;5.10;84.80;96671.53;5133931;27;20096;-61
2022/11/29 09:45:40;;;;;;;1.10;0.70;;;;;;;5.19;85.15;96674.00;5133721;27;20047;-62
2022/11/29 09:48:24;;;;;;;0.68;0.68;;;;;;;5.12;84.37;96681.00;5133886;27;20043;-61
2022/11/29 09:51:01;;;;;;;1.00;0.85;;;;;;;5.12;83.85;96673.22;5133832;27;20047;-62
2022/11/29 09:53:53;;;;;;;0.95;0.80;;;;;;;5.06;82.97;96674.16;5133882;27;20104;-62
2022/11/29 09:56:29;;;;;;;0.70;0.70;;;;;;;5.04;83.11;96675.94;5133642;27;20050;-61
2022/11/29 09:59:00;;;;;;;0.88;0.82;;;;;;;5.02;83.32;96669.03;5133827;27;20090;-61
2022/11/29 10:01:31;;;;;;;0.80;0.80;;;;;;;5.04;83.93;96669.88;5133736;27;20047;-62
2022/11/29 10:04:02;;;;;;;1.58;0.80;;;;;;;5.08;84.61;96670.72;5133836;27;20404;-62
2022/11/29 10:06:37;;;;;;;0.60;0.60;;;;;;;5.12;85.17;96673.22;5133735;27;20130;-61
2022/11/29 10:09:12;;;;;;;1.17;0.80;;;;;;;5.17;85.35;96674.03;5133640;27;20043;-62
2022/11/29 10:11:43;;;;;;;0.80;0.80;;;;;;;5.25;85.83;96668.72;5133714;27;20074;-62
2022/11/29 10:14:15;;;;;;;0.95;0.80;;;;;;;5.24;86.34;96668.75;5133603;27;20043;-61
2022/11/29 10:16:46;;;;;;;3.72;2.85;;;;;;;5.27;86.50;96674.72;5133670;27;20039;-61
2022/11/29 10:19:21;;;;;;;2.13;1.73;;;;;;;5.36;86.35;96665.13;5133494;27;20100;-62
2022/11/29 10:21:57;;;;;;;5.45;3.00;;;;;;;5.38;86.53;96665.94;5133574;27;20596;-61
2022/11/29 10:24:27;;;;;;;0.80;0.80;;;;;;;5.35;86.84;96668.56;5133535;27;20051;-62
2022/11/29 10:26:54;;;;;;;1.00;0.90;;;;;;;5.41;87.46;96660.69;5133362;27;20407;-61
2022/11/29 10:29:22;;;;;;;0.90;0.90;;;;;;;5.46;87.09;96658.91;5133572;27;20078;-61
2022/11/29 10:31:53;;;;;;;1.20;1.10;;;;;;;5.55;86.95;96663.97;5134721;27;20411;-61
2022/11/29 10:34:22;;;;;;;3.40;1.25;;;;;;;5.66;85.91;96657.72;5137273;27;20405;-62
2022/11/29 10:36:53;;;;;;;1.05;1.05;;;;;;;5.73;85.75;96654.16;5137231;27;20101;-62
2022/11/29 10:39:26;;;;;;;1.58;0.93;;;;;;;5.80;84.81;96649.69;5137163;27;20063;-61
2022/11/29 10:41:57;;;;;;;1.13;1.08;;;;;;;5.82;84.46;96642.75;5137158;27;20373;-61
2022/11/29 10:44:24;;;;;;;;;;;;;;;5.90;83.63;96643.47;5137497;27;20488;-61
2022/11/29 10:46:52;;;;;;;4.20;2.58;;;;;;;5.93;83.84;96637.38;5136852;27;19923;-61
2022/11/29 10:49:25;;;;;;;2.58;2.10;;;;;;;6.03;83.76;96638.06;5137026;27;20100;-61
2022/11/29 10:51:53;;;;;;;1.45;1.30;;;;;;;6.04;82.05;96637.19;5136893;27;20051;-62
2022/11/29 10:54:37;;;;;;;1.30;0.80;;;;;;;5.94;79.80;96642.50;5136791;27;20481;-61
2022/11/29 10:57:14;;;;;;;0.73;0.73;;;;;;;5.89;80.61;96643.47;5136791;27;20073;-61
2022/11/29 10:59:58;;;;;;;0.60;0.60;;;;;;;5.80;78.84;96644.50;5136721;27;20488;-61
2022/11/29 11:02:26;;;;;;;0.57;0.57;;;;;;;5.72;80.11;96636.84;5136551;27;20043;-61
2022/11/29 11:04:54;;;;;;;0.70;0.70;;;;;;;5.74;80.17;96634.22;5136570;27;20047;-61
2022/11/29 11:07:27;;;;;;;0.70;0.70;;;;;;;5.69;81.12;96642.09;5136423;27;20051;-62
2022/11/29 11:09:57;;;;;;;0.70;0.70;;;;;;;5.73;81.34;96632.50;5136476;27;20373;-61
2022/11/29 11:12:28;;;;;;;0.90;0.77;;;;;;;5.75;81.29;96625.56;5136492;27;20137;-61
2022/11/29 11:15:15;;;;;;;0.80;0.80;;;;;;;5.75;81.91;96630.75;5136427;27;20054;-61
2022/11/29 11:17:57;;;;;;;1.05;0.98;;;;;;;5.74;83.18;96629.03;5136097;27;20112;-62
2022/11/29 11:20:25;;;;;;;1.13;0.70;;;;;;;5.75;81.77;96621.22;5136296;27;20054;-61
2022/11/29 11:23:00;;;;;;;1.17;0.80;;;;;;;5.81;81.87;96626.31;5136212;27;20047;-62
2022/11/29 11:25:33;;;;;;;1.27;0.90;;;;;;;5.71;80.90;96624.75;5136134;27;20112;-62
2022/11/29 11:28:16;;;;;;;0.68;0.68;;;;;;;5.61;80.34;96623.19;5136130;27;20511;-61
2022/11/29 11:30:51;;;;;;;0.82;0.65;;;;;;;5.49;81.05;96626.84;5136084;27;20050;-62
2022/11/29 11:33:21;;;;;;;1.58;0.80;;;;;;;5.42;81.97;96624.34;5136054;27;20576;-61
2022/11/29 11:36:11;;;;;;;0.87;0.87;;;;;;;5.34;82.32;96626.22;5136014;27;20078;-62
2022/11/29 11:38:49;;;;;;;1.00;0.88;;;;;;;5.34;82.26;96620.16;5136168;27;20521;-62
2022/11/29 11:41:20;;;;;;;0.70;0.70;;;;;;;5.33;81.71;96613.28;5135874;27;20556;-62
2022/11/29 11:43:52;;;;;;;1.00;0.82;;;;;;;5.21;82.85;96612.56;5135674;27;20561;-62
2022/11/29 11:46:19;;;;;;;1.23;0.70;;;;;;;5.20;83.24;96613.47;5135675;27;20051;-61
2022/11/29 11:48:47;;;;;;;0.77;0.77;;;;;;;5.11;82.49;96606.69;5135778;27;20115;-61
2022/11/29 11:51:22;;;;;;;1.50;0.90;;;;;;;5.14;83.20;96608.34;5135665;27;20550;-61
2022/11/29 11:53:54;;;;;;;0.93;0.80;;;;;;;5.14;83.09;96611.81;5135730;27;20039;-62
2022/11/29 11:56:22;;;;;;;5.07;2.38;;;;;;;5.18;83.92;96607.44;5135537;27;20090;-61
2022/11/29 11:58:53;;;;;;;4.60;2.08;;;;;;;5.31;83.78;96602.91;5135438;27;20047;-61
2022/11/29 12:01:27;;;;;;;1.45;1.00;;;;;;;5.36;82.87;96611.47;5135521;27;20050;-61
2022/11/29 12:04:02;;;;;;;1.60;1.25;;;;;;;5.40;82.38;96602.78;5135387;27;20085;-62
2022/11/29 12:06:36;;;;;;;2.03;0.88;;;;;;;5.44;82.66;96600.97;5135300;27;20054;-62
2022/11/29 12:09:12;;;;;;;0.70;0.70;;;;;;;5.49;82.27;96600.91;5135395;27;20065;-61
2022/11/29 12:11:46;;;;;;;0.47;0.47;;;;;;;5.60;82.79;96598.13;5135281;27;20522;-61
2022/11/29 12:14:23;;;;;;;0.55;0.55;;;;;;;5.63;81.68;96606.72;5135246;27;20055;-62
2022/11/29 12:16:59;;;;;;;1.10;0.65;;;;;;;5.66;81.59;96598.03;5135103;27;20427;-61
2022/11/29 12:19:35;;;;;;;3.05;0.73;;;;;;;5.64;81.25;96599.78;5134977;27;20047;-62
2022/11/29 12:22:08;;;;;;;1.20;0.68;;;;;;;5.56;80.59;96605.97;5135087;27;20043;-62